MMCS/CJS METAR and TAF weather

Enter ICAO airport designator
Station Type Date Time Source
MMCS METAR 2018/12/19 03:41 UTC NOAA

MMCS 190341Z 28012KT 10SM SKC 12/01 A3002


Station Type Date Time Source
MMCS Decoded METAR 2018/12/19 03:41 UTC NOAA

Ciudad Juarez International , Mexico (MMCS) 31-38N 106-26W
Dec 18, 2018 - 10:41 PM EST / 2018.12.19 0341 UTC
Wind: from the W (280 degrees) at 14 MPH (12 KT):0
Visibility: 10 mile(s):0
Sky conditions: clear
Temperature: 53 F (12 C)
Dew Point: 33 F (1 C)
Relative Humidity: 46%
Pressure (altimeter): 30.02 in. Hg (1016 hPa)
ob: MMCS 190341Z 28012KT 10SM SKC 12/01 A3002
cycle: 3

Station Type Date Time Source
MMCS TAF 2018/12/19 06:40 UTC NOAA

TAF MMCS 190533Z 1906/2006 29008KT P6SM SKC
FM191100 30010KT P6SM SCT080
FM191800 33012KT P6SM SKC
BECMG 2003/2005 28005KT


Example: see airport list